Time;durP1;ratioP1;P1;durP2;ratioP2;P2;SDS_P1;SDS_P2;PMS_P1;PMS_P2;Temp;Humidity;BMP_temperature;BMP_pressure;BME280_temperature;BME280_humidity;BME280_pressure;Samples;Min_cycle;Max_cycle;Signal;HPM_P1;HPM_P2
2023/07/04 00:01:46;;;;;;;;;;;13.50;99.90;;;;;;5132748;27;19954;-38
2023/07/04 00:04:12;;;;;;;;;;;13.50;99.90;;;;;;5133330;27;20438;-40
2023/07/04 00:06:38;;;;;;;;;;;13.40;99.90;;;;;;5132138;27;19987;-40
2023/07/04 00:09:07;;;;;;;;;;;13.40;99.90;;;;;;5133123;27;20346;-40
2023/07/04 00:11:33;;;;;;;;;;;13.40;99.90;;;;;;5133045;28;19929;-39
2023/07/04 00:13:58;;;;;;;;;;;13.50;99.90;;;;;;5131803;28;19916;-40
2023/07/04 00:16:24;;;;;;;;;;;13.40;99.90;;;;;;5133062;28;20361;-40
2023/07/04 00:18:49;;;;;;;;;;;13.40;99.90;;;;;;5132717;28;19907;-39
2023/07/04 00:21:15;;;;;;;;;;;13.40;99.90;;;;;;5132357;28;20388;-39
2023/07/04 00:23:44;;;;;;;;;;;13.40;99.90;;;;;;5132710;28;19907;-40
2023/07/04 00:26:11;;;;;;;;;;;13.40;99.90;;;;;;5132220;28;20381;-40
2023/07/04 00:28:41;;;;;;;;;;;13.40;99.90;;;;;;5132693;28;19988;-40
2023/07/04 00:31:07;;;;;;;;;;;13.40;99.90;;;;;;5132968;28;19907;-41
2023/07/04 00:33:33;;;;;;;;;;;13.40;99.90;;;;;;5132229;28;19908;-39
2023/07/04 00:36:00;;;;;;;;;;;13.40;99.90;;;;;;5132575;28;19918;-43
2023/07/04 00:38:26;;;;;;;;;;;13.40;99.90;;;;;;5132699;28;20281;-41
2023/07/04 00:40:52;;;;;;;;;;;13.30;99.90;;;;;;5131799;28;20010;-41
2023/07/04 00:43:17;;;;;;;;;;;13.40;99.90;;;;;;5132589;28;19912;-40
2023/07/04 00:45:43;;;;;;;;;;;13.30;99.90;;;;;;5132321;28;19911;-40
2023/07/04 00:48:13;;;;;;;;;;;13.30;99.90;;;;;;5132033;28;20010;-41
2023/07/04 00:50:43;;;;;;;;;;;13.30;99.90;;;;;;5134478;27;19946;-42
2023/07/04 00:53:10;;;;;;;;;;;13.30;99.90;;;;;;5136615;27;19914;-43
2023/07/04 00:55:38;;;;;;;;;;;13.20;99.90;;;;;;5135670;27;20331;-41
2023/07/04 00:58:04;;;;;;;;;;;13.20;99.90;;;;;;5136328;27;19911;-40
2023/07/04 01:00:30;;;;;;;;;;;13.20;99.90;;;;;;5135502;27;20274;-41
2023/07/04 01:03:01;;;;;;;;;;;13.20;99.90;;;;;;5130294;27;19911;-40
2023/07/04 01:05:33;;;;;;;;;;;13.10;99.90;;;;;;5136650;27;19914;-44
2023/07/04 01:08:02;;;;;;;;;;;13.10;99.90;;;;;;5136103;27;20026;-40
2023/07/04 01:10:32;;;;;;;;;;;13.10;99.90;;;;;;5124662;27;19959;-41
2023/07/04 01:12:58;;;;;;;;;;;13.10;99.90;;;;;;5126569;27;20006;-39
2023/07/04 01:15:23;;;;;;;;;;;13.00;99.90;;;;;;5135699;27;19907;-41
2023/07/04 01:17:51;;;;;;;;;;;13.10;99.90;;;;;;5135512;27;20337;-39
2023/07/04 01:20:17;;;;;;;;;;;13.00;99.90;;;;;;5130574;27;19919;-40
2023/07/04 01:22:57;;;;;;;;;;;13.10;99.90;;;;;;5135135;27;20060;-41
2023/07/04 01:25:32;;;;;;;;;;;13.10;99.90;;;;;;5136178;27;19990;-40
2023/07/04 01:28:02;;;;;;;;;;;13.10;99.90;;;;;;5135790;27;19914;-41
2023/07/04 01:30:30;;;;;;;;;;;13.10;99.90;;;;;;5135443;27;20377;-40
2023/07/04 01:32:56;;;;;;;;;;;13.10;99.90;;;;;;5135666;27;19907;-39
2023/07/04 01:35:22;;;;;;;;;;;13.10;99.90;;;;;;5136001;27;19912;-41
2023/07/04 01:37:49;;;;;;;;;;;13.10;99.90;;;;;;5134419;27;20399;-41
2023/07/04 01:40:14;;;;;;;;;;;13.10;99.90;;;;;;5136012;27;19920;-41
2023/07/04 01:42:40;;;;;;;;;;;13.10;99.90;;;;;;5135742;27;19915;-40
2023/07/04 01:45:06;;;;;;;;;;;13.10;99.90;;;;;;5135059;27;19907;-39
2023/07/04 01:47:33;;;;;;;;;;;13.10;99.90;;;;;;5135814;27;19912;-40
2023/07/04 01:49:59;;;;;;;;;;;13.10;99.90;;;;;;5135175;27;20365;-41
2023/07/04 01:52:25;;;;;;;;;;;13.10;99.90;;;;;;5134801;27;19953;-42
2023/07/04 01:54:51;;;;;;;;;;;13.10;99.90;;;;;;5135166;27;19912;-40
2023/07/04 01:57:17;;;;;;;;;;;13.10;99.90;;;;;;5135663;27;19907;-40
2023/07/04 01:59:42;;;;;;;;;;;13.10;99.90;;;;;;5134416;27;19926;-41
2023/07/04 02:02:08;;;;;;;;;;;13.10;99.90;;;;;;5134273;27;19915;-40
2023/07/04 02:04:33;;;;;;;;;;;13.10;99.90;;;;;;5134634;27;19976;-41
2023/07/04 02:06:59;;;;;;;;;;;13.10;99.90;;;;;;5134957;27;20319;-40
2023/07/04 02:09:24;;;;;;;;;;;13.10;99.90;;;;;;5135055;27;19998;-39
2023/07/04 02:11:50;;;;;;;;;;;13.10;99.90;;;;;;5134290;27;19912;-40
2023/07/04 02:14:16;;;;;;;;;;;13.10;99.90;;;;;;5135337;27;19907;-41
2023/07/04 02:16:42;;;;;;;;;;;13.10;99.90;;;;;;5134611;27;20352;-39
2023/07/04 02:19:07;;;;;;;;;;;13.10;99.90;;;;;;5134415;27;19913;-39
2023/07/04 02:21:34;;;;;;;;;;;13.10;99.90;;;;;;5134997;27;19919;-40
2023/07/04 02:24:03;;;;;;;;;;;13.10;99.90;;;;;;5126080;27;19907;-42
2023/07/04 02:26:29;;;;;;;;;;;13.10;99.90;;;;;;5113729;28;20383;-40
2023/07/04 02:28:55;;;;;;;;;;;13.10;99.90;;;;;;5128229;27;19951;-44
2023/07/04 02:31:20;;;;;;;;;;;13.00;99.90;;;;;;5131929;27;19982;-40
2023/07/04 02:33:46;;;;;;;;;;;13.00;99.90;;;;;;5132122;27;19919;-43
2023/07/04 02:36:11;;;;;;;;;;;13.00;99.90;;;;;;5134933;27;19911;-41
2023/07/04 02:38:38;;;;;;;;;;;13.00;99.90;;;;;;5134424;27;19930;-41
2023/07/04 02:41:04;;;;;;;;;;;13.00;99.90;;;;;;5133674;27;20016;-40
2023/07/04 02:43:30;;;;;;;;;;;13.00;99.90;;;;;;5114401;28;19908;-40
2023/07/04 02:45:55;;;;;;;;;;;13.00;99.90;;;;;;5113642;28;19915;-40
2023/07/04 02:48:21;;;;;;;;;;;12.90;99.90;;;;;;5126136;27;20021;-40
2023/07/04 02:50:46;;;;;;;;;;;12.90;99.90;;;;;;5133284;27;19919;-41
2023/07/04 02:53:12;;;;;;;;;;;12.90;99.90;;;;;;5134494;27;19972;-40
2023/07/04 02:55:37;;;;;;;;;;;12.90;99.90;;;;;;5133224;27;20003;-40
2023/07/04 02:58:03;;;;;;;;;;;12.90;99.90;;;;;;5134236;27;20009;-40
2023/07/04 03:00:29;;;;;;;;;;;12.90;99.90;;;;;;5134338;27;19915;-41
2023/07/04 03:02:55;;;;;;;;;;;12.90;99.90;;;;;;5131612;27;20280;-43
2023/07/04 03:05:21;;;;;;;;;;;12.80;99.90;;;;;;5113643;28;20006;-39
2023/07/04 03:07:47;;;;;;;;;;;12.80;99.90;;;;;;5112652;28;20361;-42
2023/07/04 03:10:12;;;;;;;;;;;12.80;99.90;;;;;;5113593;28;19961;-40
2023/07/04 03:12:38;;;;;;;;;;;12.80;99.90;;;;;;5112987;28;20409;-42
2023/07/04 03:15:05;;;;;;;;;;;12.80;99.90;;;;;;5112671;28;19914;-42
2023/07/04 03:17:30;;;;;;;;;;;12.80;99.90;;;;;;5117954;27;19911;-40
2023/07/04 03:19:56;;;;;;;;;;;12.80;99.90;;;;;;5133475;27;20006;-41
2023/07/04 03:22:21;;;;;;;;;;;12.80;99.90;;;;;;5133047;27;19915;-41
2023/07/04 03:24:47;;;;;;;;;;;12.80;99.90;;;;;;5133542;27;19950;-43
2023/07/04 03:27:12;;;;;;;;;;;12.90;99.90;;;;;;5133556;27;19972;-40
2023/07/04 03:29:38;;;;;;;;;;;12.90;99.90;;;;;;5124770;27;19915;-42
2023/07/04 03:32:03;;;;;;;;;;;12.90;99.90;;;;;;5113004;28;19907;-40
2023/07/04 03:34:29;;;;;;;;;;;12.90;99.90;;;;;;5113223;28;19908;-40
2023/07/04 03:36:54;;;;;;;;;;;12.90;99.90;;;;;;5111869;28;19918;-41
2023/07/04 03:39:20;;;;;;;;;;;12.90;99.90;;;;;;5112867;28;20466;-41
2023/07/04 03:41:45;;;;;;;;;;;12.90;99.90;;;;;;5112690;28;20006;-40
2023/07/04 03:44:11;;;;;;;;;;;12.90;99.90;;;;;;5112134;28;20354;-40
2023/07/04 03:46:36;;;;;;;;;;;12.90;99.90;;;;;;5112676;28;19961;-41
2023/07/04 03:49:02;;;;;;;;;;;12.90;99.90;;;;;;5129187;27;19915;-42
2023/07/04 03:51:27;;;;;;;;;;;12.90;99.90;;;;;;5132764;27;19912;-41
2023/07/04 03:53:53;;;;;;;;;;;12.90;99.90;;;;;;5133035;27;19964;-41
2023/07/04 03:56:18;;;;;;;;;;;12.90;99.90;;;;;;5133414;27;19911;-41
2023/07/04 03:58:44;;;;;;;;;;;12.90;99.90;;;;;;5132224;27;19915;-42
2023/07/04 04:01:09;;;;;;;;;;;12.90;99.90;;;;;;5133106;27;19922;-41
2023/07/04 04:03:38;;;;;;;;;;;12.90;99.90;;;;;;5132962;27;20326;-44
2023/07/04 04:06:08;;;;;;;;;;;12.90;99.90;;;;;;5132362;27;19914;-41
2023/07/04 04:08:34;;;;;;;;;;;12.90;99.90;;;;;;5133243;27;20374;-42
2023/07/04 04:11:00;;;;;;;;;;;12.90;99.90;;;;;;5133086;27;19915;-42
2023/07/04 04:13:26;;;;;;;;;;;12.90;99.90;;;;;;5132482;28;19907;-42
2023/07/04 04:15:52;;;;;;;;;;;12.90;99.90;;;;;;5132676;28;20370;-41
2023/07/04 04:18:17;;;;;;;;;;;12.90;99.90;;;;;;5131970;28;19908;-40
2023/07/04 04:20:43;;;;;;;;;;;13.00;99.90;;;;;;5132661;28;20037;-41
2023/07/04 04:23:08;;;;;;;;;;;12.90;99.90;;;;;;5118362;28;20004;-41
2023/07/04 04:25:38;;;;;;;;;;;12.90;99.90;;;;;;5114359;27;20480;-41
2023/07/04 04:28:04;;;;;;;;;;;13.00;99.90;;;;;;5137226;27;20018;-41
2023/07/04 04:30:29;;;;;;;;;;;13.00;99.90;;;;;;5137163;27;20413;-41
2023/07/04 04:32:55;;;;;;;;;;;13.00;99.90;;;;;;5136104;27;19914;-43
2023/07/04 04:35:21;;;;;;;;;;;13.10;99.90;;;;;;5137054;27;20315;-42
2023/07/04 04:37:47;;;;;;;;;;;13.10;99.90;;;;;;5136757;27;19972;-41
2023/07/04 04:40:12;;;;;;;;;;;13.10;99.90;;;;;;5135953;27;19923;-42
2023/07/04 04:42:39;;;;;;;;;;;13.10;99.90;;;;;;5136749;27;20289;-42
2023/07/04 04:45:08;;;;;;;;;;;13.10;99.90;;;;;;5136820;27;19955;-43
2023/07/04 04:47:33;;;;;;;;;;;13.20;99.90;;;;;;5136006;27;19933;-41
2023/07/04 04:50:00;;;;;;;;;;;13.20;99.90;;;;;;5136476;27;20385;-41
2023/07/04 04:52:29;;;;;;;;;;;13.20;99.90;;;;;;5136801;27;20330;-42
2023/07/04 04:54:55;;;;;;;;;;;13.20;99.90;;;;;;5135730;27;19919;-41
2023/07/04 04:57:20;;;;;;;;;;;13.30;99.90;;;;;;5136728;27;19912;-42
2023/07/04 04:59:47;;;;;;;;;;;13.30;99.90;;;;;;5136334;27;19907;-41
2023/07/04 05:02:13;;;;;;;;;;;13.40;99.90;;;;;;5135883;27;19919;-41
2023/07/04 05:04:39;;;;;;;;;;;13.40;99.90;;;;;;5136325;27;20385;-41
2023/07/04 05:07:04;;;;;;;;;;;13.40;99.90;;;;;;5135600;27;19911;-42
2023/07/04 05:09:30;;;;;;;;;;;13.50;99.90;;;;;;5135829;27;19913;-41
2023/07/04 05:11:55;;;;;;;;;;;13.50;99.90;;;;;;5133453;27;19918;-42
2023/07/04 05:14:21;;;;;;;;;;;13.50;99.90;;;;;;5130903;27;20263;-42
2023/07/04 05:16:46;;;;;;;;;;;13.50;99.90;;;;;;5124803;27;19907;-41
2023/07/04 05:19:12;;;;;;;;;;;13.60;99.90;;;;;;5132813;27;19915;-42
2023/07/04 05:21:37;;;;;;;;;;;13.60;99.90;;;;;;5135142;27;19916;-42
2023/07/04 05:24:03;;;;;;;;;;;13.60;99.90;;;;;;5136108;27;19907;-40
2023/07/04 05:26:29;;;;;;;;;;;13.60;99.90;;;;;;5135947;27;20321;-43
2023/07/04 05:28:55;;;;;;;;;;;13.60;99.90;;;;;;5125994;27;20054;-41
2023/07/04 05:31:22;;;;;;;;;;;13.70;99.90;;;;;;5127930;27;19919;-41
2023/07/04 05:33:48;;;;;;;;;;;13.70;99.90;;;;;;5135627;27;19953;-41
2023/07/04 05:36:18;;;;;;;;;;;13.70;99.90;;;;;;5135159;27;19907;-41
2023/07/04 05:38:46;;;;;;;;;;;13.80;99.90;;;;;;5135261;27;19926;-42
2023/07/04 05:41:13;;;;;;;;;;;13.80;99.90;;;;;;5135281;27;19920;-41
2023/07/04 05:43:39;;;;;;;;;;;13.80;99.90;;;;;;5134602;27;19912;-42
2023/07/04 05:46:05;;;;;;;;;;;13.80;99.90;;;;;;5135803;27;20044;-42
2023/07/04 05:48:32;;;;;;;;;;;13.90;99.90;;;;;;5134548;27;19922;-41
2023/07/04 05:50:58;;;;;;;;;;;13.90;99.90;;;;;;5134384;27;19998;-41
2023/07/04 05:53:29;;;;;;;;;;;13.90;99.90;;;;;;5135599;27;19907;-42
2023/07/04 05:56:13;;;;;;;;;;;13.90;99.90;;;;;;5134718;27;19912;-42
2023/07/04 05:58:40;;;;;;;;;;;13.90;99.90;;;;;;5134308;27;20381;-42
2023/07/04 06:01:10;;;;;;;;;;;14.00;99.90;;;;;;5134867;27;19927;-41
2023/07/04 06:03:36;;;;;;;;;;;14.10;99.90;;;;;;5133217;27;19919;-49
2023/07/04 06:06:03;;;;;;;;;;;14.10;99.90;;;;;;5134830;27;19911;-41
2023/07/04 06:08:28;;;;;;;;;;;14.10;99.90;;;;;;5126210;27;19911;-42
2023/07/04 06:11:01;;;;;;;;;;;14.10;99.90;;;;;;5130531;27;20006;-42
2023/07/04 06:13:27;;;;;;;;;;;14.10;99.90;;;;;;5130101;27;19918;-41
2023/07/04 06:15:53;;;;;;;;;;;14.20;99.90;;;;;;5133970;27;19922;-47
2023/07/04 06:18:18;;;;;;;;;;;14.20;99.90;;;;;;5129041;27;20281;-41
2023/07/04 06:20:44;;;;;;;;;;;14.30;99.90;;;;;;5133726;27;19963;-41
2023/07/04 06:23:09;;;;;;;;;;;14.40;99.90;;;;;;5129657;27;19908;-43
2023/07/04 06:25:35;;;;;;;;;;;14.50;99.90;;;;;;5132957;27;19919;-41
2023/07/04 06:28:00;;;;;;;;;;;14.60;99.90;;;;;;5134130;27;19990;-42
2023/07/04 06:30:29;;;;;;;;;;;14.70;99.90;;;;;;5134662;27;19960;-42
2023/07/04 06:32:58;;;;;;;;;;;14.80;99.90;;;;;;5133825;27;20345;-44
2023/07/04 06:35:24;;;;;;;;;;;14.80;99.90;;;;;;5134695;27;19908;-40
2023/07/04 06:37:49;;;;;;;;;;;14.90;99.90;;;;;;5134381;27;19907;-43
2023/07/04 06:40:15;;;;;;;;;;;14.90;99.90;;;;;;5133820;27;19927;-42
2023/07/04 06:42:40;;;;;;;;;;;15.00;99.90;;;;;;5134209;27;20378;-42
2023/07/04 06:45:06;;;;;;;;;;;15.00;99.90;;;;;;5134616;27;19983;-41
2023/07/04 06:47:32;;;;;;;;;;;15.10;99.90;;;;;;5133299;27;19907;-41
2023/07/04 06:49:57;;;;;;;;;;;15.10;99.90;;;;;;5133917;27;20321;-42
2023/07/04 06:52:23;;;;;;;;;;;15.10;99.90;;;;;;5134539;27;19943;-41
2023/07/04 06:54:49;;;;;;;;;;;15.10;99.90;;;;;;5127681;27;20429;-42
2023/07/04 06:57:14;;;;;;;;;;;15.20;99.90;;;;;;5115990;27;19964;-43
2023/07/04 06:59:40;;;;;;;;;;;15.20;99.90;;;;;;5113589;27;19912;-41
2023/07/04 07:02:06;;;;;;;;;;;15.30;99.90;;;;;;5123908;27;19962;-42
2023/07/04 07:04:31;;;;;;;;;;;15.30;99.90;;;;;;5133377;27;19911;-43
2023/07/04 07:06:57;;;;;;;;;;;15.40;99.90;;;;;;5132559;27;19916;-42
2023/07/04 07:09:23;;;;;;;;;;;15.40;99.90;;;;;;5125814;27;19911;-42
2023/07/04 07:11:48;;;;;;;;;;;15.40;99.90;;;;;;5132808;27;19918;-42
2023/07/04 07:14:14;;;;;;;;;;;15.40;99.90;;;;;;5126979;27;19919;-42
2023/07/04 07:16:39;;;;;;;;;;;15.50;99.90;;;;;;5133045;27;20376;-42
2023/07/04 07:19:06;;;;;;;;;;;15.50;99.90;;;;;;5131540;27;20004;-42
2023/07/04 07:21:31;;;;;;;;;;;15.60;99.90;;;;;;5112416;28;20363;-41
2023/07/04 07:23:59;;;;;;;;;;;15.60;99.90;;;;;;5123905;27;19932;-45
2023/07/04 07:26:25;;;;;;;;;;;15.70;99.90;;;;;;5126743;27;20097;-41
2023/07/04 07:28:51;;;;;;;;;;;15.70;99.90;;;;;;5132373;27;19947;-42
2023/07/04 07:31:18;;;;;;;;;;;15.70;99.90;;;;;;5133770;27;19954;-43
2023/07/04 07:33:45;;;;;;;;;;;15.80;99.90;;;;;;5133407;27;19915;-41
2023/07/04 07:36:14;;;;;;;;;;;15.90;99.90;;;;;;5132799;27;19911;-41
2023/07/04 07:38:39;;;;;;;;;;;16.00;99.90;;;;;;5133120;27;20002;-43
2023/07/04 07:41:06;;;;;;;;;;;16.00;99.90;;;;;;5129010;27;20010;-42
2023/07/04 07:43:32;;;;;;;;;;;16.00;99.90;;;;;;5117277;27;19958;-43
2023/07/04 07:45:58;;;;;;;;;;;16.10;99.90;;;;;;5117453;27;20380;-42
2023/07/04 07:48:23;;;;;;;;;;;16.20;99.90;;;;;;5119029;27;19912;-41
2023/07/04 07:50:48;;;;;;;;;;;16.20;99.90;;;;;;5112808;28;19908;-43
2023/07/04 07:53:14;;;;;;;;;;;16.20;99.90;;;;;;5124874;27;19930;-41
2023/07/04 07:55:40;;;;;;;;;;;16.30;99.90;;;;;;5131239;27;19911;-41
2023/07/04 07:58:05;;;;;;;;;;;16.30;99.90;;;;;;5129189;27;21620;-42
2023/07/04 08:00:31;;;;;;;;;;;16.40;99.90;;;;;;5118430;27;19970;-42
2023/07/04 08:02:56;;;;;;;;;;;16.30;99.90;;;;;;5133707;27;19908;-41
2023/07/04 08:05:22;;;;;;;;;;;16.40;99.90;;;;;;5133416;27;19914;-43
2023/07/04 08:07:47;;;;;;;;;;;16.50;99.90;;;;;;5133693;27;19912;-41
2023/07/04 08:10:13;;;;;;;;;;;16.50;99.90;;;;;;5122990;27;19919;-44
2023/07/04 08:12:38;;;;;;;;;;;16.60;99.90;;;;;;5126013;27;19971;-43
2023/07/04 08:15:04;;;;;;;;;;;16.70;99.90;;;;;;5133543;28;19907;-44
2023/07/04 08:17:30;;;;;;;;;;;16.90;99.90;;;;;;5132330;28;19907;-42
2023/07/04 08:19:56;;;;;;;;;;;17.00;99.90;;;;;;5132281;28;20121;-42
2023/07/04 08:22:21;;;;;;;;;;;17.20;99.90;;;;;;5132934;28;20517;-42
2023/07/04 08:24:47;;;;;;;;;;;17.20;99.90;;;;;;5131574;28;19911;-42
2023/07/04 08:27:13;;;;;;;;;;;17.20;99.90;;;;;;5133506;28;19907;-42
2023/07/04 08:29:38;;;;;;;;;;;17.30;99.90;;;;;;5133043;28;19911;-42
2023/07/04 08:32:05;;;;;;;;;;;17.30;99.90;;;;;;5133096;28;19908;-41
2023/07/04 08:34:31;;;;;;;;;;;17.40;99.90;;;;;;5133242;28;20335;-44
2023/07/04 08:36:57;;;;;;;;;;;17.40;99.90;;;;;;5131330;28;19950;-42
2023/07/04 08:39:23;;;;;;;;;;;17.30;99.90;;;;;;5132243;28;19924;-42
2023/07/04 08:41:53;;;;;;;;;;;17.20;99.90;;;;;;5133170;28;19916;-42
2023/07/04 08:44:18;;;;;;;;;;;17.10;99.90;;;;;;5133705;28;19907;-42
2023/07/04 08:46:45;;;;;;;;;;;17.00;99.90;;;;;;5132419;28;20333;-43
2023/07/04 08:49:29;;;;;;;;;;;17.00;99.90;;;;;;5133444;28;20480;-43
2023/07/04 08:52:02;;;;;;;;;;;17.00;99.90;;;;;;5133304;28;19972;-42
2023/07/04 08:54:28;;;;;;;;;;;17.00;99.90;;;;;;5125469;27;19912;-42
2023/07/04 08:56:56;;;;;;;;;;;17.00;99.90;;;;;;5120620;28;19922;-44
2023/07/04 08:59:26;;;;;;;;;;;17.10;99.90;;;;;;5115433;28;19920;-42
2023/07/04 09:01:59;;;;;;;;;;;17.00;99.90;;;;;;5122288;28;19934;-42
2023/07/04 09:04:38;;;;;;;;;;;17.00;99.90;;;;;;5116518;28;19919;-43
2023/07/04 09:07:13;;;;;;;;;;;17.00;99.90;;;;;;5125551;28;19984;-42
2023/07/04 09:10:02;;;;;;;;;;;16.90;99.90;;;;;;5131973;28;19912;-42
2023/07/04 09:12:32;;;;;;;;;;;17.00;99.90;;;;;;5135596;27;20358;-41
2023/07/04 09:15:18;;;;;;;;;;;17.00;99.90;;;;;;5135327;27;19957;-42
2023/07/04 09:17:52;;;;;;;;;;;17.10;99.90;;;;;;5135095;27;19912;-43
2023/07/04 09:20:18;;;;;;;;;;;17.20;99.90;;;;;;5136165;27;19916;-44
2023/07/04 09:22:44;;;;;;;;;;;17.30;99.90;;;;;;5130983;27;19923;-42
2023/07/04 09:25:09;;;;;;;;;;;17.40;99.90;;;;;;5122429;27;19963;-44
2023/07/04 09:27:35;;;;;;;;;;;17.50;99.90;;;;;;5134395;27;19911;-43
2023/07/04 09:30:02;;;;;;;;;;;17.60;99.90;;;;;;5135833;27;19918;-42
2023/07/04 09:32:28;;;;;;;;;;;17.60;99.90;;;;;;5135471;27;20429;-44
2023/07/04 09:34:55;;;;;;;;;;;17.60;99.90;;;;;;5134919;27;19994;-42
2023/07/04 09:37:21;;;;;;;;;;;17.60;99.90;;;;;;5135633;27;19914;-44
2023/07/04 09:39:47;;;;;;;;;;;17.50;99.90;;;;;;5135124;27;19919;-43
2023/07/04 09:42:13;;;;;;;;;;;17.50;99.90;;;;;;5135434;27;19930;-43
2023/07/04 09:44:39;;;;;;;;;;;17.50;99.90;;;;;;5136691;27;19919;-43
2023/07/04 09:47:05;;;;;;;;;;;17.50;99.90;;;;;;5156208;27;19907;-42
2023/07/04 09:49:37;;;;;;;;;;;17.50;99.90;;;;;;5155621;27;19930;-42
2023/07/04 09:52:04;;;;;;;;;;;17.50;99.90;;;;;;5156120;27;20361;-42
2023/07/04 09:54:31;;;;;;;;;;;17.70;99.90;;;;;;5155661;27;19907;-42
2023/07/04 09:57:13;;;;;;;;;;;17.90;99.90;;;;;;5155299;27;19923;-43
2023/07/04 09:59:41;;;;;;;;;;;18.10;99.90;;;;;;5155585;27;19964;-43
2023/07/04 10:02:33;;;;;;;;;;;18.00;99.90;;;;;;5146143;27;19962;-43
2023/07/04 10:04:58;;;;;;;;;;;18.10;99.90;;;;;;5134537;27;19958;-43
2023/07/04 10:07:24;;;;;;;;;;;18.20;99.90;;;;;;5135133;27;19935;-41
2023/07/04 10:09:52;;;;;;;;;;;18.20;99.90;;;;;;5134719;27;19912;-41
2023/07/04 10:12:18;;;;;;;;;;;18.20;99.90;;;;;;5135274;27;19915;-42
2023/07/04 10:14:48;;;;;;;;;;;18.30;99.90;;;;;;5134625;27;19973;-43
2023/07/04 10:17:33;;;;;;;;;;;18.20;99.90;;;;;;5134643;27;19914;-41
2023/07/04 10:20:00;;;;;;;;;;;18.10;99.90;;;;;;5134608;27;19927;-42
2023/07/04 10:22:29;;;;;;;;;;;18.20;99.90;;;;;;5133988;27;20058;-43
2023/07/04 10:24:57;;;;;;;;;;;18.40;99.90;;;;;;5134885;27;20796;-42
2023/07/04 10:27:26;;;;;;;;;;;18.50;99.90;;;;;;5155312;27;20009;-43
2023/07/04 10:29:54;;;;;;;;;;;18.50;99.90;;;;;;5155069;27;19908;-44
2023/07/04 10:32:21;;;;;;;;;;;18.50;99.90;;;;;;5144190;27;19972;-42
2023/07/04 10:34:47;;;;;;;;;;;18.50;99.90;;;;;;5134050;27;19908;-43
2023/07/04 10:37:23;;;;;;;;;;;18.40;99.90;;;;;;5134517;27;20010;-43
2023/07/04 10:39:54;;;;;;;;;;;18.30;99.90;;;;;;5116294;27;19919;-42
2023/07/04 10:42:30;;;;;;;;;;;18.20;99.90;;;;;;5134275;27;20018;-42
2023/07/04 10:44:57;;;;;;;;;;;18.10;99.90;;;;;;5133631;27;20362;-46
2023/07/04 10:47:27;;;;;;;;;;;18.20;99.90;;;;;;5132800;27;19918;-43
2023/07/04 10:49:56;;;;;;;;;;;18.40;99.90;;;;;;5133055;27;19916;-42
2023/07/04 10:52:24;;;;;;;;;;;18.70;99.90;;;;;;5133119;27;19915;-44
2023/07/04 10:54:50;;;;;;;;;;;19.00;99.90;;;;;;5133530;27;19934;-42
2023/07/04 10:57:36;;;;;;;;;;;19.10;99.90;;;;;;5134067;27;20291;-42
2023/07/04 11:00:07;;;;;;;;;;;19.30;99.90;;;;;;5133864;27;19908;-41
2023/07/04 11:02:44;;;;;;;;;;;19.50;99.90;;;;;;5154686;27;19964;-42
2023/07/04 11:05:13;;;;;;;;;;;19.50;99.90;;;;;;5152157;27;19908;-42
2023/07/04 11:07:40;;;;;;;;;;;19.40;99.90;;;;;;5131772;27;19919;-43
2023/07/04 11:10:06;;;;;;;;;;;19.20;99.90;;;;;;5132409;27;19972;-43
2023/07/04 11:12:33;;;;;;;;;;;19.30;99.90;;;;;;5126879;27;19943;-43
2023/07/04 11:15:00;;;;;;;;;;;19.40;99.90;;;;;;5114876;27;19963;-45
2023/07/04 11:17:27;;;;;;;;;;;19.30;99.90;;;;;;5118458;27;19915;-43
2023/07/04 11:20:10;;;;;;;;;;;19.50;99.90;;;;;;5123809;27;20406;-43
2023/07/04 11:22:57;;;;;;;;;;;19.70;99.90;;;;;;5125883;27;19927;-44
2023/07/04 11:25:34;;;;;;;;;;;19.70;99.90;;;;;;5113967;27;19916;-42
2023/07/04 11:28:12;;;;;;;;;;;19.50;99.90;;;;;;5118645;27;19916;-44
2023/07/04 11:30:40;;;;;;;;;;;19.20;99.90;;;;;;5133007;27;19918;-42
2023/07/04 11:33:07;;;;;;;;;;;19.10;99.90;;;;;;5121683;27;19947;-43
2023/07/04 11:35:33;;;;;;;;;;;19.00;99.90;;;;;;5120357;27;19959;-44
2023/07/04 11:38:09;;;;;;;;;;;18.90;99.90;;;;;;5119544;27;20331;-42
2023/07/04 11:40:42;;;;;;;;;;;18.80;99.90;;;;;;5126286;27;19920;-43
2023/07/04 11:43:24;;;;;;;;;;;18.90;99.90;;;;;;5114668;27;19919;-42
2023/07/04 11:45:55;;;;;;;;;;;19.10;99.90;;;;;;5131734;27;19911;-42
2023/07/04 11:48:21;;;;;;;;;;;19.50;99.90;;;;;;5132429;27;19911;-43
2023/07/04 11:50:48;;;;;;;;;;;19.90;99.90;;;;;;5132178;27;19912;-41
2023/07/04 11:53:15;;;;;;;;;;;20.00;99.90;;;;;;5132494;27;19988;-44
2023/07/04 11:55:41;;;;;;;;;;;20.20;99.90;;;;;;5132568;27;20015;-43
2023/07/04 11:58:06;;;;;;;;;;;20.30;99.90;;;;;;5136958;27;20612;-41
2023/07/04 12:00:41;;;;;;;;;;;20.50;99.90;;;;;;5149758;27;19920;-42
2023/07/04 12:03:19;;;;;;;;;;;20.80;99.90;;;;;;5131948;27;19912;-44
2023/07/04 12:05:45;;;;;;;;;;;20.90;99.90;;;;;;5132570;27;20006;-42
2023/07/04 12:08:13;;;;;;;;;;;20.90;95.40;;;;;;5133321;27;19955;-42
2023/07/04 12:10:39;;;;;;;;;;;20.60;98.70;;;;;;5132121;27;19918;-42
2023/07/04 12:13:07;;;;;;;;;;;20.20;99.90;;;;;;5132578;27;19994;-41
2023/07/04 12:15:33;;;;;;;;;;;20.10;99.90;;;;;;5132529;28;20029;-47
2023/07/04 12:18:00;;;;;;;;;;;20.00;99.90;;;;;;5131395;27;19958;-44
2023/07/04 12:20:30;;;;;;;;;;;19.70;99.90;;;;;;5132943;28;19967;-42
2023/07/04 12:23:00;;;;;;;;;;;19.60;99.90;;;;;;5132062;27;19915;-46
2023/07/04 12:25:35;;;;;;;;;;;19.80;99.90;;;;;;5131793;28;20003;-44
2023/07/04 12:28:03;;;;;;;;;;;20.00;99.90;;;;;;5132946;27;19976;-42
2023/07/04 12:30:29;;;;;;;;;;;20.30;99.90;;;;;;5132330;28;19907;-45
2023/07/04 12:32:55;;;;;;;;;;;20.70;99.90;;;;;;5132618;27;19911;-44
2023/07/04 12:35:25;;;;;;;;;;;20.80;99.90;;;;;;5132880;28;20002;-42
2023/07/04 12:37:53;;;;;;;;;;;21.00;99.80;;;;;;5131700;28;20003;-43
2023/07/04 12:40:20;;;;;;;;;;;21.10;99.90;;;;;;5132415;27;19997;-43
2023/07/04 12:42:46;;;;;;;;;;;21.20;99.90;;;;;;5132092;28;19998;-42
2023/07/04 12:45:20;;;;;;;;;;;21.40;99.90;;;;;;5149728;27;19997;-43
2023/07/04 12:47:47;;;;;;;;;;;21.40;99.90;;;;;;5135629;27;20273;-43
2023/07/04 12:50:16;;;;;;;;;;;21.30;99.20;;;;;;5137031;27;19915;-42
2023/07/04 12:52:43;;;;;;;;;;;21.00;99.90;;;;;;5135524;27;19914;-47
2023/07/04 12:55:14;;;;;;;;;;;20.70;99.90;;;;;;5136908;27;19919;-42
2023/07/04 12:57:39;;;;;;;;;;;20.70;99.90;;;;;;5135288;27;19915;-45
2023/07/04 13:00:20;;;;;;;;;;;20.90;99.90;;;;;;5135563;27;19926;-43
2023/07/04 13:02:47;;;;;;;;;;;21.20;99.30;;;;;;5135367;27;19919;-42
2023/07/04 13:05:14;;;;;;;;;;;21.40;95.60;;;;;;5135611;27;19920;-44
2023/07/04 13:07:42;;;;;;;;;;;21.50;99.90;;;;;;5135320;27;19907;-45
2023/07/04 13:10:09;;;;;;;;;;;21.70;99.90;;;;;;5135995;27;19935;-42
2023/07/04 13:12:35;;;;;;;;;;;22.00;99.90;;;;;;5135587;27;19907;-41
2023/07/04 13:15:15;;;;;;;;;;;22.00;99.90;;;;;;5125275;27;20308;-42
2023/07/04 13:18:01;;;;;;;;;;;22.00;99.90;;;;;;5119695;27;19912;-42
2023/07/04 13:20:27;;;;;;;;;;;22.20;99.90;;;;;;5128557;27;20300;-44
2023/07/04 13:22:53;;;;;;;;;;;22.30;97.20;;;;;;5120069;27;20018;-41
2023/07/04 13:25:23;;;;;;;;;;;22.10;99.90;;;;;;5131435;27;20006;-44
2023/07/04 13:27:49;;;;;;;;;;;21.70;96.50;;;;;;5121133;27;19918;-43
2023/07/04 13:30:25;;;;;;;;;;;21.50;99.90;;;;;;5126428;27;20266;-43
2023/07/04 13:32:51;;;;;;;;;;;21.70;99.90;;;;;;5121090;27;19918;-42
2023/07/04 13:35:35;;;;;;;;;;;21.60;99.90;;;;;;5127118;27;19998;-43
2023/07/04 13:38:02;;;;;;;;;;;21.30;99.90;;;;;;5126886;27;19927;-43
2023/07/04 13:40:28;;;;;;;;;;;21.10;99.90;;;;;;5133136;27;20381;-44
2023/07/04 13:43:02;;;;;;;;;;;21.10;99.90;;;;;;5120050;27;19918;-43
2023/07/04 13:45:28;;;;;;;;;;;21.10;99.90;;;;;;5120575;27;19912;-43
2023/07/04 13:47:53;;;;;;;;;;;21.10;99.90;;;;;;5115747;27;20231;-48
2023/07/04 13:50:19;;;;;;;;;;;21.00;99.50;;;;;;5115055;28;19959;-43
2023/07/04 13:52:44;;;;;;;;;;;21.20;99.90;;;;;;5114840;28;19915;-46
2023/07/04 13:55:11;;;;;;;;;;;21.60;99.80;;;;;;5114456;28;19912;-43
2023/07/04 13:57:36;;;;;;;;;;;21.70;99.90;;;;;;5113624;27;19999;-43
2023/07/04 14:00:02;;;;;;;;;;;22.00;99.50;;;;;;5133921;27;20032;-43
2023/07/04 14:02:28;;;;;;;;;;;22.10;98.30;;;;;;5133688;27;20274;-43
2023/07/04 14:04:53;;;;;;;;;;;22.10;97.30;;;;;;5133340;27;19916;-42
2023/07/04 14:07:19;;;;;;;;;;;22.00;95.90;;;;;;5134644;27;20388;-43
2023/07/04 14:09:44;;;;;;;;;;;22.00;94.20;;;;;;5133350;27;19908;-43
2023/07/04 14:12:10;;;;;;;;;;;21.70;96.00;;;;;;5134495;27;19912;-44
2023/07/04 14:14:35;;;;;;;;;;;21.40;96.00;;;;;;5133738;27;20266;-45
2023/07/04 14:17:01;;;;;;;;;;;21.10;98.90;;;;;;5134774;27;20008;-43
2023/07/04 14:19:26;;;;;;;;;;;21.20;97.90;;;;;;5135075;27;19955;-44